Airfield :







YOU CAN JOIN US ON...

 
LOGIN :

Register | Disclaimer

   EN    FR    IT 

 









Legend :    VFR   Marginal VFR   IFR   Intensive IFR   Very Intensive IFR
Visi :
Ceiling :
>= 8 km
>= 3000ft
5 to 8 km
1000 to 3000 ft
1500m to 5 km
500 to 1000 ft
800 to 1500m
200 to 500 ft
< 800m
< 200 ft
Symbols :   Thunderstorms  Fog  Heavy snow  Heavy precipitations  Wind > 20 kt






- Airport Elevation : 1808 ft
- IATA code : YWK


CYWK - Wabush

CURRENT METAR :
  • 062000Z 30013KT 5SM -SHSN DRSN BKN042 OVC065 M14/M18 A2953 RMK CU6SC2 SLP051

EXPIRED METARs :
  • 061900Z 31008KT 5SM -SHSN BKN055 OVC065 M14/M18 A2952 RMK CU5SC3 SLP045
  • 061800Z 30008KT 12SM -SHSN DRSN FEW018 BKN032 OVC045 M14/M18 A2950 RMK CU2SC3SC3 SLP037

TAF TAF CYWK
Valid from the 06 at 20:00 until the 07 at 08:00 UTC


061938Z 0620/0708 32010G20KT P6SM -SN SCT015 BKN040
TEMPO 0620/0708 4SM -SN OVC015
PROB30 0620/0708 2SM -SN RMK NXT FCST BY 070200Z



MET'MAP, your aeronautical weather chart ! - Copyright ORBIFLY December 2007 - Disclaimer

ORBIFLY MET'MAP TEAM :

Programming & Development : Alexandra Zaïnal
Concept & original design : Baudouin d'Aumeries
Assistance for programming : Marc-Olivier Méhu
Technical & hardware support : Manuel Goepfert

Contact : metmap@orbifly.com




SOURCES & CREDITS :

   NOAA